sensor_id;sensor_type;location;lat;lon;timestamp;P1;durP1;ratioP1;P2;durP2;ratioP2
74788;SDS011;63313;48.258;12.518;2023-04-28T00:01:27;12.59;;;5.34;;
74788;SDS011;63313;48.258;12.518;2023-04-28T00:06:54;9.639999999999999;;;5.859999999999999;;
74788;SDS011;63313;48.258;12.518;2023-04-28T00:12:22;9.85;;;5.610000000000001;;
74788;SDS011;63313;48.258;12.518;2023-04-28T00:17:50;9.02;;;5.4799999999999995;;
74788;SDS011;63313;48.258;12.518;2023-04-28T00:23:17;10.680000000000001;;;5.8100000000000005;;
74788;SDS011;63313;48.258;12.518;2023-04-28T00:28:44;11.629999999999999;;;5.84;;
74788;SDS011;63313;48.258;12.518;2023-04-28T00:34:11;11.48;;;5.62;;
74788;SDS011;63313;48.258;12.518;2023-04-28T00:39:38;7.720000000000001;;;5.569999999999999;;
74788;SDS011;63313;48.258;12.518;2023-04-28T00:45:05;8.04;;;5.87;;
74788;SDS011;63313;48.258;12.518;2023-04-28T00:50:32;11.11;;;6.410000000000001;;
74788;SDS011;63313;48.258;12.518;2023-04-28T00:55:59;12.05;;;6.539999999999999;;
74788;SDS011;63313;48.258;12.518;2023-04-28T01:01:27;11.57;;;7.619999999999999;;
74788;SDS011;63313;48.258;12.518;2023-04-28T01:06:54;14.940000000000001;;;9.61;;
74788;SDS011;63313;48.258;12.518;2023-04-28T01:12:21;21.27;;;12.780000000000001;;
74788;SDS011;63313;48.258;12.518;2023-04-28T01:17:48;31.669999999999998;;;13.440000000000001;;
74788;SDS011;63313;48.258;12.518;2023-04-28T01:23:16;26.57;;;12.74;;
74788;SDS011;63313;48.258;12.518;2023-04-28T01:28:43;23.93;;;11.8;;
74788;SDS011;63313;48.258;12.518;2023-04-28T01:34:10;21.89;;;9.049999999999999;;
74788;SDS011;63313;48.258;12.518;2023-04-28T01:39:37;14.270000000000001;;;7.81;;
74788;SDS011;63313;48.258;12.518;2023-04-28T01:45:04;12.809999999999999;;;6.9799999999999995;;
74788;SDS011;63313;48.258;12.518;2023-04-28T01:50:31;14.01;;;6.81;;
74788;SDS011;63313;48.258;12.518;2023-04-28T01:55:59;14.15;;;6.470000000000001;;
74788;SDS011;63313;48.258;12.518;2023-04-28T02:01:26;12.4;;;6.5200000000000005;;
74788;SDS011;63313;48.258;12.518;2023-04-28T02:06:53;15.039999999999997;;;6.590000000000001;;
74788;SDS011;63313;48.258;12.518;2023-04-28T02:12:20;13.45;;;6.58;;
74788;SDS011;63313;48.258;12.518;2023-04-28T02:17:47;14.429999999999998;;;7.590000000000001;;
74788;SDS011;63313;48.258;12.518;2023-04-28T02:23:14;15.5;;;7.58;;
74788;SDS011;63313;48.258;12.518;2023-04-28T02:28:41;17.53;;;7.919999999999999;;
74788;SDS011;63313;48.258;12.518;2023-04-28T02:34:08;16.74;;;9.59;;
74788;SDS011;63313;48.258;12.518;2023-04-28T02:39:35;22.270000000000003;;;12.57;;
74788;SDS011;63313;48.258;12.518;2023-04-28T02:45:03;21.690000000000005;;;13.430000000000001;;
74788;SDS011;63313;48.258;12.518;2023-04-28T02:50:30;27.77;;;14.2;;
74788;SDS011;63313;48.258;12.518;2023-04-28T02:55:57;20.250000000000004;;;12.51;;
74788;SDS011;63313;48.258;12.518;2023-04-28T03:01:24;22.59;;;10.48;;
74788;SDS011;63313;48.258;12.518;2023-04-28T03:06:51;18.2;;;9.080000000000002;;
74788;SDS011;63313;48.258;12.518;2023-04-28T03:12:18;17.89;;;7.639999999999999;;
74788;SDS011;63313;48.258;12.518;2023-04-28T03:17:45;15.949999999999998;;;7.0200000000000005;;
74788;SDS011;63313;48.258;12.518;2023-04-28T03:23:12;18.63;;;6.99;;
74788;SDS011;63313;48.258;12.518;2023-04-28T03:28:40;11.260000000000002;;;6.5200000000000005;;
74788;SDS011;63313;48.258;12.518;2023-04-28T03:34:07;14.850000000000003;;;7.840000000000001;;
74788;SDS011;63313;48.258;12.518;2023-04-28T03:39:34;16.7;;;7.81;;
74788;SDS011;63313;48.258;12.518;2023-04-28T03:45:01;15.5;;;7.43;;
74788;SDS011;63313;48.258;12.518;2023-04-28T03:50:28;12.919999999999998;;;6.92;;
74788;SDS011;63313;48.258;12.518;2023-04-28T03:55:56;11.73;;;6.75;;
74788;SDS011;63313;48.258;12.518;2023-04-28T04:01:23;15.62;;;7.25;;
74788;SDS011;63313;48.258;12.518;2023-04-28T04:06:50;10.16;;;7.01;;
74788;SDS011;63313;48.258;12.518;2023-04-28T04:12:17;15.440000000000001;;;7.9;;
74788;SDS011;63313;48.258;12.518;2023-04-28T04:17:44;18.180000000000003;;;11.110000000000001;;
74788;SDS011;63313;48.258;12.518;2023-04-28T04:23:11;16.59;;;11.48;;
74788;SDS011;63313;48.258;12.518;2023-04-28T04:28:39;24.380000000000003;;;10.4;;
74788;SDS011;63313;48.258;12.518;2023-04-28T04:34:06;18.68;;;10.47;;
74788;SDS011;63313;48.258;12.518;2023-04-28T04:39:33;14.290000000000001;;;9.9;;
74788;SDS011;63313;48.258;12.518;2023-04-28T04:45:00;16.3;;;9.23;;
74788;SDS011;63313;48.258;12.518;2023-04-28T04:50:27;17.06;;;9.450000000000001;;
74788;SDS011;63313;48.258;12.518;2023-04-28T04:55:54;17.48;;;9.879999999999999;;
74788;SDS011;63313;48.258;12.518;2023-04-28T05:01:21;18.56;;;9.24;;
74788;SDS011;63313;48.258;12.518;2023-04-28T05:06:48;15.52;;;9.64;;
74788;SDS011;63313;48.258;12.518;2023-04-28T05:12:15;18.1;;;9.739999999999998;;
74788;SDS011;63313;48.258;12.518;2023-04-28T05:17:42;21.389999999999997;;;10.73;;
74788;SDS011;63313;48.258;12.518;2023-04-28T05:23:09;22.45;;;10.2;;
74788;SDS011;63313;48.258;12.518;2023-04-28T05:28:38;16.35;;;8.969999999999999;;
74788;SDS011;63313;48.258;12.518;2023-04-28T05:34:05;16.57;;;8.56;;
74788;SDS011;63313;48.258;12.518;2023-04-28T05:39:32;17.7;;;8.86;;
74788;SDS011;63313;48.258;12.518;2023-04-28T05:44:59;18.419999999999998;;;9.120000000000001;;
74788;SDS011;63313;48.258;12.518;2023-04-28T05:50:26;13.66;;;8.129999999999999;;
74788;SDS011;63313;48.258;12.518;2023-04-28T05:55:53;12.489999999999998;;;7.4799999999999995;;
74788;SDS011;63313;48.258;12.518;2023-04-28T06:01:21;15.16;;;7.890000000000001;;
74788;SDS011;63313;48.258;12.518;2023-04-28T06:06:48;14.11;;;7.529999999999999;;
74788;SDS011;63313;48.258;12.518;2023-04-28T06:12:15;14.85;;;7.540000000000001;;
74788;SDS011;63313;48.258;12.518;2023-04-28T06:17:42;14.530000000000001;;;7.659999999999999;;
74788;SDS011;63313;48.258;12.518;2023-04-28T06:23:09;12.620000000000001;;;7.550000000000002;;
74788;SDS011;63313;48.258;12.518;2023-04-28T06:28:36;15.559999999999999;;;7.840000000000001;;
74788;SDS011;63313;48.258;12.518;2023-04-28T06:34:04;14.4;;;8.51;;
74788;SDS011;63313;48.258;12.518;2023-04-28T06:39:31;20.83;;;9.06;;
74788;SDS011;63313;48.258;12.518;2023-04-28T06:44:58;15.080000000000002;;;9.19;;
74788;SDS011;63313;48.258;12.518;2023-04-28T06:50:25;21.740000000000002;;;8.81;;
74788;SDS011;63313;48.258;12.518;2023-04-28T06:55:52;18.89;;;9.940000000000001;;
74788;SDS011;63313;48.258;12.518;2023-04-28T07:01:19;21.32;;;10.169999999999998;;
74788;SDS011;63313;48.258;12.518;2023-04-28T07:06:46;29.559999999999995;;;11.219999999999999;;
74788;SDS011;63313;48.258;12.518;2023-04-28T07:12:13;20.68;;;9.849999999999998;;
74788;SDS011;63313;48.258;12.518;2023-04-28T07:17:40;20.619999999999997;;;9.54;;
74788;SDS011;63313;48.258;12.518;2023-04-28T07:23:07;16.96;;;10.020000000000001;;
74788;SDS011;63313;48.258;12.518;2023-04-28T07:28:34;22.64;;;10.1;;
74788;SDS011;63313;48.258;12.518;2023-04-28T07:34:01;15.37;;;9.110000000000003;;
74788;SDS011;63313;48.258;12.518;2023-04-28T07:39:29;17.39;;;9.610000000000001;;
74788;SDS011;63313;48.258;12.518;2023-04-28T07:44:57;19.419999999999998;;;10.059999999999999;;
74788;SDS011;63313;48.258;12.518;2023-04-28T07:50:24;19.16;;;9.84;;
74788;SDS011;63313;48.258;12.518;2023-04-28T07:55:51;27.8;;;11.059999999999999;;
74788;SDS011;63313;48.258;12.518;2023-04-28T08:01:18;16.3;;;9.74;;
74788;SDS011;63313;48.258;12.518;2023-04-28T08:06:45;20.86;;;11.760000000000002;;
74788;SDS011;63313;48.258;12.518;2023-04-28T08:12:12;21.540000000000003;;;12.72;;
74788;SDS011;63313;48.258;12.518;2023-04-28T08:17:39;25.830000000000002;;;14.690000000000001;;
74788;SDS011;63313;48.258;12.518;2023-04-28T08:23:06;25.520000000000003;;;13.91;;
74788;SDS011;63313;48.258;12.518;2023-04-28T08:28:33;24.859999999999996;;;14.449999999999998;;
74788;SDS011;63313;48.258;12.518;2023-04-28T08:34:00;20.720000000000002;;;11.95;;
74788;SDS011;63313;48.258;12.518;2023-04-28T08:39:27;28.509999999999998;;;15.449999999999998;;
74788;SDS011;63313;48.258;12.518;2023-04-28T08:44:55;25.52;;;15.85;;
74788;SDS011;63313;48.258;12.518;2023-04-28T08:50:22;21.57;;;13.670000000000002;;
74788;SDS011;63313;48.258;12.518;2023-04-28T08:55:50;35.63999999999999;;;17.970000000000002;;
74788;SDS011;63313;48.258;12.518;2023-04-28T09:01:18;26.93;;;14.690000000000001;;
74788;SDS011;63313;48.258;12.518;2023-04-28T09:06:45;30.07;;;15.770000000000001;;
74788;SDS011;63313;48.258;12.518;2023-04-28T09:12:12;31.470000000000006;;;17.000000000000004;;
74788;SDS011;63313;48.258;12.518;2023-04-28T09:17:46;22.86;;;14.879999999999999;;
74788;SDS011;63313;48.258;12.518;2023-04-28T09:23:14;29.05;;;14.74;;
74788;SDS011;63313;48.258;12.518;2023-04-28T09:28:42;23.52;;;13.779999999999998;;
74788;SDS011;63313;48.258;12.518;2023-04-28T09:34:09;24.79;;;13.91;;
74788;SDS011;63313;48.258;12.518;2023-04-28T09:39:36;22.41;;;13.51;;
74788;SDS011;63313;48.258;12.518;2023-04-28T09:45:03;24.3;;;14.160000000000002;;
74788;SDS011;63313;48.258;12.518;2023-04-28T09:50:38;27.840000000000003;;;13.219999999999999;;
74788;SDS011;63313;48.258;12.518;2023-04-28T09:56:05;24.86;;;13.4;;
74788;SDS011;63313;48.258;12.518;2023-04-28T10:01:35;18.359999999999996;;;11.77;;
74788;SDS011;63313;48.258;12.518;2023-04-28T10:07:03;21.959999999999997;;;12.57;;
74788;SDS011;63313;48.258;12.518;2023-04-28T10:12:30;20.66;;;12.049999999999999;;
74788;SDS011;63313;48.258;12.518;2023-04-28T10:17:58;24.08;;;13.180000000000001;;
74788;SDS011;63313;48.258;12.518;2023-04-28T10:23:30;16.81;;;11.81;;
74788;SDS011;63313;48.258;12.518;2023-04-28T10:29:01;21.48;;;12.020000000000001;;
74788;SDS011;63313;48.258;12.518;2023-04-28T10:34:29;20.21;;;12.73;;
74788;SDS011;63313;48.258;12.518;2023-04-28T10:41:00;18.87;;;12.510000000000002;;
74788;SDS011;63313;48.258;12.518;2023-04-28T10:46:28;21.650000000000002;;;13.439999999999998;;
74788;SDS011;63313;48.258;12.518;2023-04-28T10:52:56;19.87;;;14.059999999999999;;
74788;SDS011;63313;48.258;12.518;2023-04-28T10:58:30;20.27;;;13.440000000000001;;
74788;SDS011;63313;48.258;12.518;2023-04-28T11:03:58;19.32;;;13.52;;
74788;SDS011;63313;48.258;12.518;2023-04-28T11:09:57;24.2;;;14.38;;
74788;SDS011;63313;48.258;12.518;2023-04-28T11:15:24;25.389999999999997;;;14.12;;
74788;SDS011;63313;48.258;12.518;2023-04-28T11:20:52;21.25;;;15.329999999999998;;
74788;SDS011;63313;48.258;12.518;2023-04-28T11:26:22;19.12;;;13.89;;
74788;SDS011;63313;48.258;12.518;2023-04-28T11:31:49;25.040000000000003;;;15.279999999999998;;
74788;SDS011;63313;48.258;12.518;2023-04-28T11:37:16;26.779999999999994;;;15.74;;
74788;SDS011;63313;48.258;12.518;2023-04-28T11:42:46;32.19;;;19.4;;
74788;SDS011;63313;48.258;12.518;2023-04-28T11:48:19;32.27;;;19.140000000000004;;
74788;SDS011;63313;48.258;12.518;2023-04-28T11:53:46;34.309999999999995;;;18.559999999999995;;
74788;SDS011;63313;48.258;12.518;2023-04-28T11:59:13;26.5;;;15.319999999999999;;
74788;SDS011;63313;48.258;12.518;2023-04-28T12:04:41;30.169999999999998;;;17.410000000000004;;
74788;SDS011;63313;48.258;12.518;2023-04-28T12:10:09;24.66;;;15.789999999999997;;
74788;SDS011;63313;48.258;12.518;2023-04-28T12:15:38;22.529999999999994;;;14.210000000000003;;
74788;SDS011;63313;48.258;12.518;2023-04-28T12:21:06;17.380000000000003;;;9.9;;
74788;SDS011;63313;48.258;12.518;2023-04-28T12:26:46;8.27;;;4.069999999999999;;
74788;SDS011;63313;48.258;12.518;2023-04-28T12:32:13;13.330000000000002;;;6.859999999999999;;
74788;SDS011;63313;48.258;12.518;2023-04-28T12:37:40;5.869999999999999;;;4.56;;
74788;SDS011;63313;48.258;12.518;2023-04-28T12:43:07;4.25;;;3.8;;
74788;SDS011;63313;48.258;12.518;2023-04-28T12:48:34;7.88;;;5.28;;
74788;SDS011;63313;48.258;12.518;2023-04-28T12:54:02;5.4399999999999995;;;3.8900000000000006;;
74788;SDS011;63313;48.258;12.518;2023-04-28T12:59:29;4.609999999999999;;;3.97;;
74788;SDS011;63313;48.258;12.518;2023-04-28T13:04:56;4.7299999999999995;;;3.2300000000000004;;
74788;SDS011;63313;48.258;12.518;2023-04-28T13:10:23;4.89;;;3.3299999999999996;;
74788;SDS011;63313;48.258;12.518;2023-04-28T13:15:50;4.35;;;3.02;;
74788;SDS011;63313;48.258;12.518;2023-04-28T13:21:17;2.8;;;2.4400000000000004;;
74788;SDS011;63313;48.258;12.518;2023-04-28T13:26:44;2.88;;;2.47;;
74788;SDS011;63313;48.258;12.518;2023-04-28T13:32:11;2.7800000000000002;;;2.5200000000000005;;
74788;SDS011;63313;48.258;12.518;2023-04-28T13:37:38;2.9299999999999997;;;2.23;;
74788;SDS011;63313;48.258;12.518;2023-04-28T13:43:06;2.9099999999999997;;;2.4800000000000004;;
74788;SDS011;63313;48.258;12.518;2023-04-28T13:48:33;3.19;;;2.34;;
74788;SDS011;63313;48.258;12.518;2023-04-28T13:54:00;3.3999999999999995;;;2.45;;
74788;SDS011;63313;48.258;12.518;2023-04-28T13:59:27;2.2199999999999998;;;2.05;;
74788;SDS011;63313;48.258;12.518;2023-04-28T14:04:54;3.66;;;2.3199999999999994;;
74788;SDS011;63313;48.258;12.518;2023-04-28T14:10:21;2.67;;;2.46;;
74788;SDS011;63313;48.258;12.518;2023-04-28T14:15:49;2.5;;;2.21;;
74788;SDS011;63313;48.258;12.518;2023-04-28T14:21:17;2.9499999999999997;;;2.2199999999999998;;
74788;SDS011;63313;48.258;12.518;2023-04-28T14:26:44;4.5;;;1.85;;
74788;SDS011;63313;48.258;12.518;2023-04-28T14:32:11;1.7;;;1.5999999999999999;;
74788;SDS011;63313;48.258;12.518;2023-04-28T14:37:38;2.22;;;1.9299999999999997;;
74788;SDS011;63313;48.258;12.518;2023-04-28T14:43:05;4.85;;;1.9300000000000002;;
74788;SDS011;63313;48.258;12.518;2023-04-28T14:48:32;2.65;;;2.0;;
74788;SDS011;63313;48.258;12.518;2023-04-28T14:54:00;2.06;;;1.9599999999999997;;
74788;SDS011;63313;48.258;12.518;2023-04-28T14:59:27;2.0;;;1.8799999999999997;;
74788;SDS011;63313;48.258;12.518;2023-04-28T15:04:54;3.54;;;2.4;;
74788;SDS011;63313;48.258;12.518;2023-04-28T15:10:21;2.1100000000000003;;;1.98;;
74788;SDS011;63313;48.258;12.518;2023-04-28T15:15:48;2.9399999999999995;;;1.7899999999999998;;
74788;SDS011;63313;48.258;12.518;2023-04-28T15:21:15;3.1799999999999997;;;2.2299999999999995;;
74788;SDS011;63313;48.258;12.518;2023-04-28T15:26:42;2.93;;;1.6199999999999999;;
74788;SDS011;63313;48.258;12.518;2023-04-28T15:32:09;2.29;;;1.67;;
74788;SDS011;63313;48.258;12.518;2023-04-28T15:37:38;3.4;;;1.7;;
74788;SDS011;63313;48.258;12.518;2023-04-28T15:43:06;2.0900000000000003;;;1.9299999999999997;;
74788;SDS011;63313;48.258;12.518;2023-04-28T15:48:33;2.0;;;1.6700000000000004;;
74788;SDS011;63313;48.258;12.518;2023-04-28T15:54:00;4.53;;;2.08;;
74788;SDS011;63313;48.258;12.518;2023-04-28T15:59:27;7.6;;;1.8;;
74788;SDS011;63313;48.258;12.518;2023-04-28T16:04:54;5.6;;;2.37;;
74788;SDS011;63313;48.258;12.518;2023-04-28T16:10:22;4.220000000000001;;;2.3;;
74788;SDS011;63313;48.258;12.518;2023-04-28T16:15:49;3.53;;;2.04;;
74788;SDS011;63313;48.258;12.518;2023-04-28T16:21:16;4.61;;;2.3;;
74788;SDS011;63313;48.258;12.518;2023-04-28T16:26:43;3.55;;;3.19;;
74788;SDS011;63313;48.258;12.518;2023-04-28T16:32:10;3.6800000000000006;;;3.06;;
74788;SDS011;63313;48.258;12.518;2023-04-28T16:37:37;6.15;;;4.3500000000000005;;
74788;SDS011;63313;48.258;12.518;2023-04-28T16:43:04;16.1;;;12.22;;
74788;SDS011;63313;48.258;12.518;2023-04-28T16:48:31;14.09;;;9.040000000000001;;
74788;SDS011;63313;48.258;12.518;2023-04-28T16:53:58;8.889999999999999;;;3.88;;
74788;SDS011;63313;48.258;12.518;2023-04-28T16:59:25;7.35;;;4.5600000000000005;;
74788;SDS011;63313;48.258;12.518;2023-04-28T17:04:52;3.0300000000000002;;;2.5900000000000003;;
74788;SDS011;63313;48.258;12.518;2023-04-28T17:10:19;5.930000000000001;;;2.6300000000000003;;
74788;SDS011;63313;48.258;12.518;2023-04-28T17:15:52;2.02;;;1.8800000000000001;;
74788;SDS011;63313;48.258;12.518;2023-04-28T17:21:19;7.390000000000001;;;2.0900000000000007;;
74788;SDS011;63313;48.258;12.518;2023-04-28T17:26:46;2.35;;;2.1500000000000004;;
74788;SDS011;63313;48.258;12.518;2023-04-28T17:32:13;3.1399999999999997;;;2.04;;
74788;SDS011;63313;48.258;12.518;2023-04-28T17:37:40;3.38;;;2.8899999999999997;;
74788;SDS011;63313;48.258;12.518;2023-04-28T17:43:07;2.7199999999999998;;;2.42;;
74788;SDS011;63313;48.258;12.518;2023-04-28T17:48:34;6.28;;;4.499999999999999;;
74788;SDS011;63313;48.258;12.518;2023-04-28T17:54:01;5.0;;;3.88;;
74788;SDS011;63313;48.258;12.518;2023-04-28T17:59:28;4.69;;;3.8199999999999994;;
74788;SDS011;63313;48.258;12.518;2023-04-28T18:04:55;9.2;;;4.91;;
74788;SDS011;63313;48.258;12.518;2023-04-28T18:10:22;2.94;;;2.7299999999999995;;
74788;SDS011;63313;48.258;12.518;2023-04-28T18:15:49;2.96;;;2.6;;
74788;SDS011;63313;48.258;12.518;2023-04-28T18:21:17;3.2299999999999995;;;2.48;;
74788;SDS011;63313;48.258;12.518;2023-04-28T18:26:44;5.459999999999999;;;3.1999999999999997;;
74788;SDS011;63313;48.258;12.518;2023-04-28T18:32:11;7.960000000000001;;;4.62;;
74788;SDS011;63313;48.258;12.518;2023-04-28T18:37:38;14.069999999999999;;;4.890000000000001;;
74788;SDS011;63313;48.258;12.518;2023-04-28T18:43:05;8.16;;;4.4399999999999995;;
74788;SDS011;63313;48.258;12.518;2023-04-28T18:48:32;6.590000000000001;;;3.95;;
74788;SDS011;63313;48.258;12.518;2023-04-28T18:53:59;8.749999999999998;;;3.9800000000000004;;
74788;SDS011;63313;48.258;12.518;2023-04-28T18:59:26;4.360000000000001;;;3.13;;
74788;SDS011;63313;48.258;12.518;2023-04-28T19:04:53;4.029999999999999;;;3.09;;
74788;SDS011;63313;48.258;12.518;2023-04-28T19:10:20;3.29;;;2.66;;
74788;SDS011;63313;48.258;12.518;2023-04-28T19:15:50;5.52;;;2.9;;
74788;SDS011;63313;48.258;12.518;2023-04-28T19:21:17;5.42;;;2.3699999999999997;;
74788;SDS011;63313;48.258;12.518;2023-04-28T19:26:44;5.07;;;2.5300000000000002;;
74788;SDS011;63313;48.258;12.518;2023-04-28T19:32:11;5.46;;;3.0;;
74788;SDS011;63313;48.258;12.518;2023-04-28T19:37:38;5.34;;;2.9800000000000004;;
74788;SDS011;63313;48.258;12.518;2023-04-28T19:43:06;4.5200000000000005;;;2.39;;
74788;SDS011;63313;48.258;12.518;2023-04-28T19:48:33;2.73;;;2.0100000000000002;;
74788;SDS011;63313;48.258;12.518;2023-04-28T19:54:00;4.24;;;1.7600000000000002;;
74788;SDS011;63313;48.258;12.518;2023-04-28T19:59:27;4.49;;;2.1100000000000003;;
74788;SDS011;63313;48.258;12.518;2023-04-28T20:04:54;4.17;;;1.5099999999999998;;
74788;SDS011;63313;48.258;12.518;2023-04-28T20:10:21;3.78;;;1.6599999999999997;;
74788;SDS011;63313;48.258;12.518;2023-04-28T20:15:48;3.7299999999999995;;;1.5799999999999998;;
74788;SDS011;63313;48.258;12.518;2023-04-28T20:21:15;1.7399999999999998;;;1.64;;
74788;SDS011;63313;48.258;12.518;2023-04-28T20:26:42;2.92;;;2.2;;
74788;SDS011;63313;48.258;12.518;2023-04-28T20:32:09;1.8599999999999999;;;1.6300000000000001;;
74788;SDS011;63313;48.258;12.518;2023-04-28T20:37:36;4.23;;;3.53;;
74788;SDS011;63313;48.258;12.518;2023-04-28T20:43:03;1.65;;;1.5499999999999998;;
74788;SDS011;63313;48.258;12.518;2023-04-28T20:48:31;2.1199999999999997;;;1.9200000000000004;;
74788;SDS011;63313;48.258;12.518;2023-04-28T20:53:58;1.85;;;0.96;;
74788;SDS011;63313;48.258;12.518;2023-04-28T20:59:25;0.8400000000000001;;;0.8200000000000001;;
74788;SDS011;63313;48.258;12.518;2023-04-28T21:04:52;0.8400000000000001;;;0.8400000000000001;;
74788;SDS011;63313;48.258;12.518;2023-04-28T21:10:19;1.8699999999999999;;;1.13;;
74788;SDS011;63313;48.258;12.518;2023-04-28T21:15:46;2.18;;;1.4200000000000002;;
74788;SDS011;63313;48.258;12.518;2023-04-28T21:21:13;1.6599999999999997;;;1.31;;
74788;SDS011;63313;48.258;12.518;2023-04-28T21:26:40;2.78;;;1.35;;
74788;SDS011;63313;48.258;12.518;2023-04-28T21:32:07;1.22;;;1.0699999999999998;;
74788;SDS011;63313;48.258;12.518;2023-04-28T21:37:34;1.2600000000000002;;;1.1599999999999997;;
74788;SDS011;63313;48.258;12.518;2023-04-28T21:43:01;1.05;;;1.05;;
74788;SDS011;63313;48.258;12.518;2023-04-28T21:48:28;1.14;;;1.1300000000000001;;
74788;SDS011;63313;48.258;12.518;2023-04-28T21:53:55;1.3699999999999999;;;1.0699999999999998;;
74788;SDS011;63313;48.258;12.518;2023-04-28T21:59:23;1.22;;;1.22;;
74788;SDS011;63313;48.258;12.518;2023-04-28T22:04:50;2.16;;;1.17;;
74788;SDS011;63313;48.258;12.518;2023-04-28T22:10:17;1.0399999999999998;;;0.97;;
74788;SDS011;63313;48.258;12.518;2023-04-28T22:15:44;1.0;;;0.9;;
74788;SDS011;63313;48.258;12.518;2023-04-28T22:21:11;0.97;;;0.97;;
74788;SDS011;63313;48.258;12.518;2023-04-28T22:26:38;2.02;;;0.9899999999999999;;
74788;SDS011;63313;48.258;12.518;2023-04-28T22:32:05;1.1099999999999999;;;1.1099999999999999;;
74788;SDS011;63313;48.258;12.518;2023-04-28T22:37:32;1.1;;;1.01;;
74788;SDS011;63313;48.258;12.518;2023-04-28T22:42:59;0.9;;;0.9;;
74788;SDS011;63313;48.258;12.518;2023-04-28T22:48:26;1.6800000000000002;;;1.05;;
74788;SDS011;63313;48.258;12.518;2023-04-28T22:53:53;2.96;;;1.06;;
74788;SDS011;63313;48.258;12.518;2023-04-28T22:59:20;0.9199999999999999;;;0.9199999999999999;;
74788;SDS011;63313;48.258;12.518;2023-04-28T23:04:47;1.2099999999999997;;;1.03;;
74788;SDS011;63313;48.258;12.518;2023-04-28T23:10:15;1.02;;;1.02;;
74788;SDS011;63313;48.258;12.518;2023-04-28T23:15:42;1.1999999999999997;;;1.13;;
74788;SDS011;63313;48.258;12.518;2023-04-28T23:21:09;1.1;;;1.1;;
74788;SDS011;63313;48.258;12.518;2023-04-28T23:26:36;0.96;;;0.96;;
74788;SDS011;63313;48.258;12.518;2023-04-28T23:32:03;1.51;;;1.1999999999999997;;
74788;SDS011;63313;48.258;12.518;2023-04-28T23:37:30;1.7;;;1.52;;
74788;SDS011;63313;48.258;12.518;2023-04-28T23:42:57;2.4400000000000004;;;1.6800000000000002;;
74788;SDS011;63313;48.258;12.518;2023-04-28T23:48:24;1.7900000000000003;;;1.6099999999999999;;
74788;SDS011;63313;48.258;12.518;2023-04-28T23:53:51;4.6;;;2.05;;
74788;SDS011;63313;48.258;12.518;2023-04-28T23:59:18;1.78;;;1.6800000000000002;;
